Time;durP1;ratioP1;P1;durP2;ratioP2;P2;SDS_P1;SDS_P2;PMS_P1;PMS_P2;Temp;Humidity;BMP_temperature;BMP_pressure;BME280_temperature;BME280_humidity;BME280_pressure;Samples;Min_cycle;Max_cycle;Signal;HPM_P1;HPM_P2
2023/09/11 00:02:15;;;;;;;16.70;14.90;;;;;;;;;;5075376;28;20160;-54
2023/09/11 00:04:41;;;;;;;18.50;16.30;;;;;;;;;;5074129;28;20180;-50
2023/09/11 00:07:07;;;;;;;19.77;16.37;;;;;;;;;;5074930;28;20200;-52
2023/09/11 00:09:33;;;;;;;17.33;15.13;;;;;;;;;;5074726;28;20157;-47
2023/09/11 00:11:59;;;;;;;18.43;15.90;;;;;;;;;;5074884;28;20232;-47
2023/09/11 00:14:25;;;;;;;20.90;16.30;;;;;;;;;;5093795;28;20240;-49
2023/09/11 00:16:51;;;;;;;19.77;16.90;;;;;;;;;;5075965;28;20176;-51
2023/09/11 00:19:17;;;;;;;17.47;14.90;;;;;;;;;;5076391;28;20187;-52
2023/09/11 00:21:43;;;;;;;17.93;16.13;;;;;;;;;;5093564;28;20237;-49
2023/09/11 00:24:10;;;;;;;18.77;16.73;;;;;;;;;;5093364;28;20188;-47
2023/09/11 00:26:36;;;;;;;17.97;16.03;;;;;;;;;;5076008;28;20786;-51
2023/09/11 00:29:02;;;;;;;18.13;16.23;;;;;;;;;;5075966;28;20164;-48
2023/09/11 00:31:28;;;;;;;20.43;16.77;;;;;;;;;;5093573;28;20153;-48
2023/09/11 00:33:54;;;;;;;19.27;16.23;;;;;;;;;;5077271;28;20183;-48
2023/09/11 00:36:22;;;;;;;20.53;17.10;;;;;;;;;;5080738;28;20225;-52
2023/09/11 00:38:50;;;;;;;19.07;16.83;;;;;;;;;;5097158;28;20168;-48
2023/09/11 00:41:17;;;;;;;19.17;16.17;;;;;;;;;;5079602;28;20233;-50
2023/09/11 00:43:45;;;;;;;19.63;17.00;;;;;;;;;;5096813;28;20167;-50
2023/09/11 00:46:11;;;;;;;20.03;16.47;;;;;;;;;;5079581;28;20670;-52
2023/09/11 00:48:37;;;;;;;19.17;16.17;;;;;;;;;;5078762;28;20579;-48
2023/09/11 00:51:03;;;;;;;19.40;16.10;;;;;;;;;;5057076;28;1138734;-50
2023/09/11 00:53:30;;;;;;;23.43;17.03;;;;;;;;;;5081050;28;20180;-51
2023/09/11 00:55:56;;;;;;;20.90;16.80;;;;;;;;;;5080745;28;20175;-49
2023/09/11 00:58:22;;;;;;;19.27;16.87;;;;;;;;;;5079969;28;20262;-52
2023/09/11 01:00:49;;;;;;;21.00;17.00;;;;;;;;;;5079464;28;20206;-53
2023/09/11 01:03:16;;;;;;;17.87;16.03;;;;;;;;;;5080236;28;20176;-49
2023/09/11 01:05:43;;;;;;;19.30;16.60;;;;;;;;;;5080590;28;20180;-48
2023/09/11 01:08:09;;;;;;;18.40;16.17;;;;;;;;;;5080666;28;20168;-54
2023/09/11 01:10:36;;;;;;;19.90;17.07;;;;;;;;;;5080427;28;20267;-52
2023/09/11 01:13:09;;;;;;;20.20;16.13;;;;;;;;;;5081176;28;20176;-53
2023/09/11 01:15:38;;;;;;;19.50;17.23;;;;;;;;;;5081303;28;20214;-53
2023/09/11 01:18:14;;;;;;;19.90;17.63;;;;;;;;;;5079734;28;20172;-52
2023/09/11 01:20:59;;;;;;;19.13;15.90;;;;;;;;;;5080694;28;20456;-49
2023/09/11 01:23:40;;;;;;;17.43;15.53;;;;;;;;;;5098292;28;20235;-50
2023/09/11 01:26:06;;;;;;;21.47;16.47;;;;;;;;;;5080037;28;20622;-55
2023/09/11 01:28:51;;;;;;;22.10;18.00;;;;;;;;;;5080705;28;20715;-50
2023/09/11 01:31:37;;;;;;;20.20;17.83;;;;;;;;;;5080540;28;20233;-54
2023/09/11 01:34:08;;;;;;;19.63;16.70;;;;;;;;;;5080012;28;20172;-54
2023/09/11 01:36:34;;;;;;;18.43;16.43;;;;;;;;;;5098078;28;20253;-55
2023/09/11 01:39:01;;;;;;;18.90;16.00;;;;;;;;;;5080323;28;20186;-55
2023/09/11 01:41:28;;;;;;;20.53;17.07;;;;;;;;;;5080703;28;20209;-48
2023/09/11 01:43:57;;;;;;;21.90;19.23;;;;;;;;;;5097365;28;20267;-51
2023/09/11 01:46:23;;;;;;;22.73;18.83;;;;;;;;;;5080358;28;20282;-51
2023/09/11 01:48:50;;;;;;;21.23;17.27;;;;;;;;;;5079897;28;20711;-50
2023/09/11 01:51:16;;;;;;;20.40;16.77;;;;;;;;;;5080900;28;20176;-50
2023/09/11 01:53:43;;;;;;;19.63;16.63;;;;;;;;;;5079842;28;20184;-50
2023/09/11 01:56:16;;;;;;;19.20;16.20;;;;;;;;;;5097932;28;20179;-51
2023/09/11 01:58:44;;;;;;;18.87;15.40;;;;;;;;;;5098181;28;20209;-47
2023/09/11 02:01:10;;;;;;;20.77;17.50;;;;;;;;;;5080684;28;20288;-55
2023/09/11 02:03:36;;;;;;;20.83;16.40;;;;;;;;;;5098131;28;20817;-51
2023/09/11 02:06:02;;;;;;;20.70;16.97;;;;;;;;;;5080346;28;20305;-52
2023/09/11 02:08:28;;;;;;;22.23;17.80;;;;;;;;;;5080608;28;20175;-49
2023/09/11 02:10:54;;;;;;;18.40;16.20;;;;;;;;;;5098098;28;20574;-50
2023/09/11 02:13:20;;;;;;;19.83;17.10;;;;;;;;;;5076871;28;20281;-49
2023/09/11 02:15:46;;;;;;;18.60;16.30;;;;;;;;;;5093246;28;20175;-53
2023/09/11 02:18:13;;;;;;;18.97;16.40;;;;;;;;;;5094269;28;20169;-50
2023/09/11 02:20:39;;;;;;;22.37;18.90;;;;;;;;;;5078597;28;20219;-54
2023/09/11 02:23:05;;;;;;;19.33;16.23;;;;;;;;;;5097910;28;20210;-53
2023/09/11 02:25:31;;;;;;;20.00;17.90;;;;;;;;;;5079881;28;20176;-53
2023/09/11 02:27:57;;;;;;;19.87;16.80;;;;;;;;;;5079856;28;20784;-54
2023/09/11 02:30:23;;;;;;;18.70;16.60;;;;;;;;;;5080120;28;20274;-52
2023/09/11 02:32:49;;;;;;;18.90;16.77;;;;;;;;;;5097083;28;20255;-53
2023/09/11 02:35:15;;;;;;;19.13;16.90;;;;;;;;;;5097588;28;20260;-52
2023/09/11 02:37:41;;;;;;;22.03;16.23;;;;;;;;;;5096920;28;20195;-50
2023/09/11 02:40:07;;;;;;;18.60;16.17;;;;;;;;;;5097928;28;20247;-51
2023/09/11 02:42:34;;;;;;;23.30;18.27;;;;;;;;;;5079123;28;20172;-53
2023/09/11 02:45:00;;;;;;;20.30;17.30;;;;;;;;;;5079638;28;20278;-53
2023/09/11 02:47:26;;;;;;;18.20;15.27;;;;;;;;;;5078636;28;20302;-49
2023/09/11 02:49:53;;;;;;;22.37;18.13;;;;;;;;;;5078985;28;20176;-49
2023/09/11 02:52:19;;;;;;;19.70;16.63;;;;;;;;;;5075192;28;20236;-51
2023/09/11 02:54:45;;;;;;;17.90;15.67;;;;;;;;;;5075693;28;20446;-50
2023/09/11 02:57:12;;;;;;;20.17;17.17;;;;;;;;;;5075873;28;20703;-53
2023/09/11 02:59:38;;;;;;;20.93;18.57;;;;;;;;;;5075756;28;20215;-51
2023/09/11 03:02:05;;;;;;;21.17;17.43;;;;;;;;;;5075015;28;20237;-50
2023/09/11 03:04:32;;;;;;;22.30;18.13;;;;;;;;;;5075085;28;20176;-53
2023/09/11 03:06:58;;;;;;;21.70;18.40;;;;;;;;;;5074541;28;20192;-54
2023/09/11 03:09:28;;;;;;;22.83;18.37;;;;;;;;;;5074510;28;20172;-52
2023/09/11 03:11:55;;;;;;;22.23;17.53;;;;;;;;;;5074060;28;20165;-51
2023/09/11 03:14:21;;;;;;;19.27;16.70;;;;;;;;;;5073979;28;20177;-52
2023/09/11 03:16:47;;;;;;;20.70;16.93;;;;;;;;;;5074373;28;20529;-50
2023/09/11 03:19:13;;;;;;;20.50;17.53;;;;;;;;;;5073275;28;20649;-52
2023/09/11 03:21:39;;;;;;;20.73;17.57;;;;;;;;;;5074650;28;20166;-51
2023/09/11 03:24:06;;;;;;;20.83;17.03;;;;;;;;;;5074920;28;20222;-54
2023/09/11 03:26:32;;;;;;;24.43;18.40;;;;;;;;;;5074753;28;20346;-51
2023/09/11 03:29:01;;;;;;;22.90;18.40;;;;;;;;;;5075360;28;20263;-49
2023/09/11 03:31:27;;;;;;;20.90;16.63;;;;;;;;;;5074495;28;20252;-52
2023/09/11 03:33:53;;;;;;;21.40;17.13;;;;;;;;;;5074675;28;20177;-53
2023/09/11 03:36:25;;;;;;;18.17;15.90;;;;;;;;;;5074523;28;20188;-53
2023/09/11 03:38:51;;;;;;;21.43;17.47;;;;;;;;;;5074997;28;20176;-47
2023/09/11 03:41:18;;;;;;;19.80;16.83;;;;;;;;;;5075296;28;20168;-50
2023/09/11 03:43:44;;;;;;;18.77;16.77;;;;;;;;;;5075016;28;20283;-50
2023/09/11 03:46:12;;;;;;;20.47;16.83;;;;;;;;;;5074789;28;20346;-54
2023/09/11 03:48:38;;;;;;;20.57;17.07;;;;;;;;;;5074701;28;20181;-52
2023/09/11 03:51:04;;;;;;;20.60;17.03;;;;;;;;;;5074994;28;20153;-51
2023/09/11 03:53:30;;;;;;;20.90;17.07;;;;;;;;;;5074595;28;20470;-53
2023/09/11 03:55:56;;;;;;;20.60;17.27;;;;;;;;;;5073474;28;20170;-47
2023/09/11 03:58:23;;;;;;;20.23;17.37;;;;;;;;;;5072768;28;20172;-51
2023/09/11 04:00:49;;;;;;;24.30;17.40;;;;;;;;;;5091494;28;20183;-51
2023/09/11 04:03:16;;;;;;;24.07;19.80;;;;;;;;;;5073025;28;20164;-52
2023/09/11 04:05:42;;;;;;;21.83;17.70;;;;;;;;;;5089979;28;20241;-51
2023/09/11 04:08:08;;;;;;;20.00;17.50;;;;;;;;;;5070952;28;20172;-54
2023/09/11 04:10:35;;;;;;;22.30;17.60;;;;;;;;;;5071542;28;20175;-50
2023/09/11 04:13:01;;;;;;;23.07;18.60;;;;;;;;;;5072428;28;20172;-49
2023/09/11 04:15:27;;;;;;;22.30;17.90;;;;;;;;;;5071216;28;20179;-49
2023/09/11 04:17:54;;;;;;;21.57;17.87;;;;;;;;;;5072830;28;20452;-53
2023/09/11 04:20:21;;;;;;;21.50;18.43;;;;;;;;;;5095016;28;20237;-50
2023/09/11 04:22:47;;;;;;;20.30;16.80;;;;;;;;;;5077218;28;20172;-52
2023/09/11 04:25:13;;;;;;;20.90;17.33;;;;;;;;;;5077012;28;20164;-50
2023/09/11 04:27:39;;;;;;;22.73;18.93;;;;;;;;;;5076250;28;20215;-51
2023/09/11 04:30:05;;;;;;;22.37;18.17;;;;;;;;;;5075321;28;20593;-51
2023/09/11 04:32:31;;;;;;;19.33;16.40;;;;;;;;;;5075342;28;20170;-51
2023/09/11 04:34:58;;;;;;;21.37;17.03;;;;;;;;;;5075429;28;20737;-48
2023/09/11 04:37:24;;;;;;;24.20;18.57;;;;;;;;;;5074929;28;20219;-51
2023/09/11 04:39:50;;;;;;;22.23;16.77;;;;;;;;;;5076307;28;20172;-52
2023/09/11 04:42:16;;;;;;;21.43;16.77;;;;;;;;;;5077395;28;20172;-51
2023/09/11 04:44:42;;;;;;;22.33;17.97;;;;;;;;;;5077357;28;20198;-50
2023/09/11 04:47:08;;;;;;;24.17;18.30;;;;;;;;;;5076895;28;20641;-52
2023/09/11 04:49:34;;;;;;;19.97;16.13;;;;;;;;;;5077300;28;20172;-54
2023/09/11 04:52:00;;;;;;;21.27;16.90;;;;;;;;;;5072568;28;20228;-53
2023/09/11 04:54:26;;;;;;;20.27;17.27;;;;;;;;;;5072777;28;20210;-52
2023/09/11 04:56:52;;;;;;;20.13;16.83;;;;;;;;;;5072561;28;20196;-51
2023/09/11 04:59:18;;;;;;;22.10;17.83;;;;;;;;;;5072566;28;20171;-50
2023/09/11 05:01:45;;;;;;;20.03;16.93;;;;;;;;;;5070740;28;20261;-51
2023/09/11 05:04:11;;;;;;;21.37;16.83;;;;;;;;;;5071374;28;20188;-51
2023/09/11 05:06:37;;;;;;;21.63;16.90;;;;;;;;;;5071862;28;20204;-55
2023/09/11 05:09:03;;;;;;;21.30;17.00;;;;;;;;;;5072556;28;20157;-50
2023/09/11 05:11:29;;;;;;;20.03;16.87;;;;;;;;;;5071872;28;20555;-50
2023/09/11 05:13:55;;;;;;;20.63;17.00;;;;;;;;;;5070194;28;20218;-50
2023/09/11 05:16:21;;;;;;;22.57;17.13;;;;;;;;;;5071035;28;20235;-48
2023/09/11 05:18:47;;;;;;;21.17;17.17;;;;;;;;;;5071704;28;20219;-49
2023/09/11 05:21:14;;;;;;;22.00;16.83;;;;;;;;;;5074513;28;20187;-52
2023/09/11 05:23:42;;;;;;;20.13;16.53;;;;;;;;;;5075182;28;20176;-52
2023/09/11 05:26:09;;;;;;;17.17;15.10;;;;;;;;;;5075156;28;20234;-52
2023/09/11 05:28:37;;;;;;;20.83;16.53;;;;;;;;;;5075660;28;20180;-52
2023/09/11 05:31:05;;;;;;;18.70;16.70;;;;;;;;;;5075537;28;20176;-51
2023/09/11 05:33:34;;;;;;;17.87;15.20;;;;;;;;;;5074603;28;20192;-55
2023/09/11 05:36:01;;;;;;;21.00;15.20;;;;;;;;;;5074494;28;20215;-49
2023/09/11 05:38:27;;;;;;;19.60;15.63;;;;;;;;;;5073029;28;20202;-48
2023/09/11 05:40:54;;;;;;;19.10;15.63;;;;;;;;;;5073755;28;20175;-49
2023/09/11 05:43:20;;;;;;;18.73;15.67;;;;;;;;;;5070205;28;20202;-49
2023/09/11 05:45:46;;;;;;;21.63;15.53;;;;;;;;;;5066962;28;20746;-51
2023/09/11 05:48:13;;;;;;;19.23;14.97;;;;;;;;;;5066954;28;20169;-51
2023/09/11 05:50:39;;;;;;;17.00;15.20;;;;;;;;;;5067585;28;20183;-51
2023/09/11 05:53:06;;;;;;;17.17;14.77;;;;;;;;;;5068142;28;20229;-54
2023/09/11 05:55:36;;;;;;;17.80;14.70;;;;;;;;;;5067550;28;20191;-49
2023/09/11 05:58:03;;;;;;;16.87;13.87;;;;;;;;;;5067156;28;20175;-52
2023/09/11 06:00:29;;;;;;;14.23;12.60;;;;;;;;;;5066529;28;20622;-50
2023/09/11 06:02:55;;;;;;;15.57;13.67;;;;;;;;;;5067067;28;20551;-54
2023/09/11 06:05:23;;;;;;;16.10;13.83;;;;;;;;;;5065374;28;20536;-51
2023/09/11 06:07:49;;;;;;;18.30;15.00;;;;;;;;;;5062695;28;20540;-49
2023/09/11 06:10:15;;;;;;;19.47;14.87;;;;;;;;;;5062648;28;20494;-52
2023/09/11 06:12:42;;;;;;;16.67;13.67;;;;;;;;;;5061817;28;20238;-50
2023/09/11 06:15:09;;;;;;;17.33;13.53;;;;;;;;;;5064607;28;20443;-53
2023/09/11 06:17:35;;;;;;;20.27;14.00;;;;;;;;;;5066431;28;20212;-55
2023/09/11 06:20:08;;;;;;;16.60;13.27;;;;;;;;;;5071815;28;20242;-52
2023/09/11 06:22:35;;;;;;;20.20;14.90;;;;;;;;;;5073412;28;20187;-50
2023/09/11 06:25:02;;;;;;;15.67;14.03;;;;;;;;;;5073261;28;20237;-51
2023/09/11 06:27:28;;;;;;;16.17;12.70;;;;;;;;;;5072758;28;20204;-48
2023/09/11 06:29:56;;;;;;;14.13;12.33;;;;;;;;;;5071157;28;20172;-52
2023/09/11 06:32:22;;;;;;;13.47;12.07;;;;;;;;;;5070269;28;20169;-49
2023/09/11 06:34:49;;;;;;;17.00;12.40;;;;;;;;;;5069922;28;20183;-50
2023/09/11 06:37:15;;;;;;;14.20;12.50;;;;;;;;;;5071877;28;20212;-55
2023/09/11 06:39:40;;;;;;;16.07;12.20;;;;;;;;;;5070681;28;20200;-50
2023/09/11 06:42:07;;;;;;;15.17;13.10;;;;;;;;;;5071701;28;20202;-50
2023/09/11 06:44:33;;;;;;;16.63;13.80;;;;;;;;;;5073605;28;20179;-55
2023/09/11 06:46:59;;;;;;;15.17;13.03;;;;;;;;;;5073247;28;20204;-53
2023/09/11 06:49:26;;;;;;;13.70;11.80;;;;;;;;;;5072443;28;20275;-49
2023/09/11 06:51:52;;;;;;;15.37;13.00;;;;;;;;;;5078668;28;20231;-53
2023/09/11 06:54:18;;;;;;;14.77;12.97;;;;;;;;;;5075708;28;20511;-48
2023/09/11 06:56:44;;;;;;;17.70;13.10;;;;;;;;;;5073988;28;20167;-52
2023/09/11 06:59:10;;;;;;;15.60;12.10;;;;;;;;;;5073759;28;20266;-47
2023/09/11 07:01:39;;;;;;;15.80;13.10;;;;;;;;;;5072983;28;20192;-50
2023/09/11 07:04:11;;;;;;;14.67;12.40;;;;;;;;;;5071664;28;20176;-55
2023/09/11 07:06:38;;;;;;;17.10;14.10;;;;;;;;;;5069144;28;20808;-50
2023/09/11 07:09:05;;;;;;;18.53;14.17;;;;;;;;;;5087539;28;20621;-53
2023/09/11 07:11:31;;;;;;;16.77;13.63;;;;;;;;;;5087531;28;20172;-54
2023/09/11 07:13:58;;;;;;;13.80;12.37;;;;;;;;;;5088853;28;20148;-52
2023/09/11 07:16:27;;;;;;;15.23;12.87;;;;;;;;;;5089445;28;20168;-52
2023/09/11 07:18:53;;;;;;;13.70;12.20;;;;;;;;;;5070666;28;20187;-53
2023/09/11 07:21:19;;;;;;;15.03;11.40;;;;;;;;;;5070740;28;20279;-54
2023/09/11 07:23:46;;;;;;;19.77;15.57;;;;;;;;;;5068903;28;20283;-54
2023/09/11 07:26:13;;;;;;;18.67;14.37;;;;;;;;;;5070628;28;20268;-50
2023/09/11 07:28:55;;;;;;;14.23;11.40;;;;;;;;;;5069863;28;20164;-51
2023/09/11 07:31:21;;;;;;;20.07;14.17;;;;;;;;;;5072907;28;20202;-51
2023/09/11 07:33:48;;;;;;;15.03;12.20;;;;;;;;;;5070020;28;20172;-51
2023/09/11 07:36:14;;;;;;;14.33;12.30;;;;;;;;;;5070479;28;20202;-53
2023/09/11 07:38:44;;;;;;;16.77;14.33;;;;;;;;;;5071033;28;20172;-50
2023/09/11 07:41:11;;;;;;;15.20;12.17;;;;;;;;;;5069683;28;20171;-55
2023/09/11 07:43:37;;;;;;;16.67;12.40;;;;;;;;;;5070944;28;20172;-52
2023/09/11 07:46:03;;;;;;;18.03;14.53;;;;;;;;;;5088858;28;20168;-49
2023/09/11 07:48:30;;;;;;;17.20;13.87;;;;;;;;;;5090950;28;20178;-49
2023/09/11 07:50:56;;;;;;;13.63;12.00;;;;;;;;;;5073294;28;20251;-51
2023/09/11 07:53:23;;;;;;;14.27;10.83;;;;;;;;;;5064731;28;20224;-48
2023/09/11 07:55:49;;;;;;;17.37;14.00;;;;;;;;;;5064551;28;20169;-49
2023/09/11 07:58:17;;;;;;;14.10;11.03;;;;;;;;;;5064568;28;20563;-48
2023/09/11 08:00:44;;;;;;;12.10;10.50;;;;;;;;;;5063932;28;20184;-50
2023/09/11 08:03:11;;;;;;;14.30;10.37;;;;;;;;;;5063155;28;20568;-48
2023/09/11 08:05:37;;;;;;;15.10;13.50;;;;;;;;;;5062233;28;20261;-51
2023/09/11 08:08:03;;;;;;;15.13;12.10;;;;;;;;;;5064672;28;20634;-48
2023/09/11 08:10:30;;;;;;;14.77;11.67;;;;;;;;;;5065693;28;20184;-52
2023/09/11 08:12:56;;;;;;;15.07;12.70;;;;;;;;;;5064725;28;20271;-51
2023/09/11 08:15:23;;;;;;;17.57;14.50;;;;;;;;;;5066407;28;20427;-51
2023/09/11 08:17:50;;;;;;;16.23;13.53;;;;;;;;;;5065775;28;20457;-50
2023/09/11 08:20:17;;;;;;;16.17;13.17;;;;;;;;;;5070910;28;20561;-53
2023/09/11 08:22:44;;;;;;;15.73;13.27;;;;;;;;;;5070824;28;20215;-52
2023/09/11 08:25:11;;;;;;;14.90;12.47;;;;;;;;;;5069093;28;20172;-53
2023/09/11 08:27:39;;;;;;;14.83;12.10;;;;;;;;;;5069740;28;20196;-52
2023/09/11 08:30:06;;;;;;;15.73;12.73;;;;;;;;;;5070119;28;20668;-51
2023/09/11 08:32:37;;;;;;;12.23;10.90;;;;;;;;;;5069633;28;20164;-48
2023/09/11 08:35:05;;;;;;;14.40;12.90;;;;;;;;;;5070433;28;20177;-50
2023/09/11 08:37:31;;;;;;;12.20;11.00;;;;;;;;;;5053200;28;20218;-51
2023/09/11 08:39:58;;;;;;;15.60;10.90;;;;;;;;;;5070496;28;20218;-54
2023/09/11 08:42:26;;;;;;;15.60;12.83;;;;;;;;;;5069658;28;20237;-53
2023/09/11 08:44:54;;;;;;;12.67;11.17;;;;;;;;;;5070119;28;20212;-55
2023/09/11 08:47:22;;;;;;;19.43;12.83;;;;;;;;;;5069399;28;20314;-52
2023/09/11 08:49:55;;;;;;;16.07;11.30;;;;;;;;;;5067754;28;20264;-48
2023/09/11 08:52:23;;;;;;;11.47;10.27;;;;;;;;;;5069641;28;20222;-49
2023/09/11 08:54:50;;;;;;;15.43;10.87;;;;;;;;;;5069114;28;20188;-56
2023/09/11 08:57:21;;;;;;;12.20;9.37;;;;;;;;;;5070916;28;20567;-54
2023/09/11 08:59:50;;;;;;;15.17;11.23;;;;;;;;;;5072837;28;20160;-51
2023/09/11 09:02:17;;;;;;;14.60;9.93;;;;;;;;;;5071972;28;20187;-49
2023/09/11 09:04:44;;;;;;;12.57;10.63;;;;;;;;;;5072358;28;20176;-49
2023/09/11 09:07:12;;;;;;;12.13;9.80;;;;;;;;;;5071857;28;20269;-52
2023/09/11 09:09:39;;;;;;;9.93;8.30;;;;;;;;;;5074072;28;20177;-52
2023/09/11 09:12:05;;;;;;;11.07;7.47;;;;;;;;;;5073685;28;20180;-54
2023/09/11 09:14:32;;;;;;;8.40;7.30;;;;;;;;;;5073282;28;20259;-49
2023/09/11 09:16:58;;;;;;;8.03;7.23;;;;;;;;;;5070977;28;20173;-55
2023/09/11 09:19:25;;;;;;;7.67;6.60;;;;;;;;;;5071912;28;20173;-55
2023/09/11 09:22:06;;;;;;;8.27;7.20;;;;;;;;;;5072863;28;20173;-54
2023/09/11 09:24:36;;;;;;;7.70;6.90;;;;;;;;;;5073383;28;20224;-55
2023/09/11 09:27:03;;;;;;;7.23;6.50;;;;;;;;;;5071513;28;20212;-56
2023/09/11 09:29:39;;;;;;;7.47;6.77;;;;;;;;;;5070868;28;20564;-52
2023/09/11 09:32:07;;;;;;;7.50;6.80;;;;;;;;;;5072542;28;20176;-55
2023/09/11 09:34:35;;;;;;;9.77;8.37;;;;;;;;;;5072257;28;20180;-51
2023/09/11 09:37:01;;;;;;;9.30;8.37;;;;;;;;;;5073040;28;20541;-54
2023/09/11 09:39:28;;;;;;;12.37;7.50;;;;;;;;;;5074207;28;20175;-51
2023/09/11 09:41:57;;;;;;;9.00;7.50;;;;;;;;;;5072515;28;20247;-54
2023/09/11 09:44:36;;;;;;;7.57;6.87;;;;;;;;;;5071358;28;20173;-51
2023/09/11 09:47:09;;;;;;;12.97;8.83;;;;;;;;;;5054293;28;20223;-50
2023/09/11 09:49:48;;;;;;;8.03;6.83;;;;;;;;;;5071415;28;20160;-52
2023/09/11 09:52:14;;;;;;;9.27;8.20;;;;;;;;;;5072151;28;20328;-55
2023/09/11 09:54:46;;;;;;;9.77;7.83;;;;;;;;;;5071244;28;20174;-54
2023/09/11 09:57:13;;;;;;;7.30;6.50;;;;;;;;;;5071927;28;20230;-50
2023/09/11 09:59:40;;;;;;;7.70;6.77;;;;;;;;;;5070700;28;20180;-52
2023/09/11 10:02:08;;;;;;;12.63;7.43;;;;;;;;;;5073249;28;20172;-55
2023/09/11 10:04:34;;;;;;;13.87;7.97;;;;;;;;;;5072748;28;20659;-51
2023/09/11 10:07:00;;;;;;;11.17;7.03;;;;;;;;;;5072215;28;20633;-51
2023/09/11 10:09:26;;;;;;;7.10;5.80;;;;;;;;;;5072341;28;20704;-51
2023/09/11 10:11:53;;;;;;;11.50;8.50;;;;;;;;;;5072375;28;20173;-56
2023/09/11 10:14:20;;;;;;;10.47;6.23;;;;;;;;;;5072789;28;20180;-53
2023/09/11 10:16:47;;;;;;;14.40;7.80;;;;;;;;;;5072007;28;20250;-53
2023/09/11 10:19:13;;;;;;;10.87;7.00;;;;;;;;;;5071185;28;20188;-52
2023/09/11 10:21:40;;;;;;;13.60;7.47;;;;;;;;;;5070672;28;20165;-55
2023/09/11 10:24:10;;;;;;;13.73;6.77;;;;;;;;;;5071305;28;20584;-56
2023/09/11 10:26:45;;;;;;;12.23;6.30;;;;;;;;;;5071420;28;20343;-54
2023/09/11 10:29:12;;;;;;;7.37;6.30;;;;;;;;;;5070948;28;20229;-55
2023/09/11 10:31:42;;;;;;;6.70;6.00;;;;;;;;;;5070540;28;20210;-52
2023/09/11 10:34:11;;;;;;;10.23;6.17;;;;;;;;;;5070543;28;20204;-55
2023/09/11 10:36:47;;;;;;;9.67;6.40;;;;;;;;;;5070514;28;20587;-54
2023/09/11 10:39:21;;;;;;;6.33;5.40;;;;;;;;;;5072529;28;20184;-52
2023/09/11 10:41:47;;;;;;;13.00;6.57;;;;;;;;;;5070938;28;20173;-52
2023/09/11 10:44:15;;;;;;;7.10;5.53;;;;;;;;;;5069966;28;20322;-53
2023/09/11 10:46:47;;;;;;;8.20;5.87;;;;;;;;;;5071181;28;20206;-51
2023/09/11 10:49:14;;;;;;;11.03;6.60;;;;;;;;;;5071099;28;20712;-55
2023/09/11 10:51:40;;;;;;;8.40;5.40;;;;;;;;;;5074010;28;20332;-54
2023/09/11 10:54:09;;;;;;;11.80;5.85;;;;;;;;;;5087392;28;20549;-55
2023/09/11 10:56:36;;;;;;;10.45;6.22;;;;;;;;;;5073522;28;20223;-51
2023/09/11 10:59:02;;;;;;;9.95;6.15;;;;;;;;;;5073049;28;20664;-56
2023/09/11 11:01:29;;;;;;;11.20;5.82;;;;;;;;;;5070988;28;20210;-54
2023/09/11 11:03:57;;;;;;;11.68;6.10;;;;;;;;;;5088403;28;20176;-50
2023/09/11 11:06:25;;;;;;;12.18;5.35;;;;;;;;;;5069937;28;20218;-56
2023/09/11 11:08:51;;;;;;;7.18;5.50;;;;;;;;;;5070096;28;20258;-56
2023/09/11 11:11:21;;;;;;;8.05;5.70;;;;;;;;;;5070414;28;20467;-56
2023/09/11 11:14:08;;;;;;;11.57;5.60;;;;;;;;;;5069116;28;20847;-57
2023/09/11 11:16:38;;;;;;;6.35;5.15;;;;;;;;;;5071872;28;20175;-57
2023/09/11 11:19:04;;;;;;;18.10;6.22;;;;;;;;;;5089829;28;20550;-52
2023/09/11 11:21:42;;;;;;;6.82;5.00;;;;;;;;;;5090338;28;20244;-55
2023/09/11 11:24:09;;;;;;;8.82;5.32;;;;;;;;;;5071385;28;20191;-56
2023/09/11 11:26:40;;;;;;;7.93;5.32;;;;;;;;;;5072068;28;20212;-56
2023/09/11 11:29:08;;;;;;;8.15;6.03;;;;;;;;;;5071888;28;20175;-56
2023/09/11 11:31:35;;;;;;;10.07;5.53;;;;;;;;;;5085604;28;20172;-54
2023/09/11 11:34:02;;;;;;;10.82;5.32;;;;;;;;;;5068073;28;20198;-53
2023/09/11 11:36:30;;;;;;;9.48;5.53;;;;;;;;;;5065937;28;20163;-56
2023/09/11 11:38:59;;;;;;;12.40;6.40;;;;;;;;;;5066927;28;20179;-56
2023/09/11 11:41:25;;;;;;;9.63;6.25;;;;;;;;;;5086062;28;20256;-56
2023/09/11 11:43:53;;;;;;;11.85;5.97;;;;;;;;;;5069798;28;20164;-55
2023/09/11 11:46:28;;;;;;;9.25;6.03;;;;;;;;;;5068964;28;20172;-54
2023/09/11 11:48:55;;;;;;;7.95;6.10;;;;;;;;;;5052687;28;20432;-57
2023/09/11 11:51:29;;;;;;;10.40;7.18;;;;;;;;;;5087314;28;20557;-56
2023/09/11 11:53:57;;;;;;;11.07;7.05;;;;;;;;;;5070364;28;20183;-54
2023/09/11 11:56:25;;;;;;;9.57;6.72;;;;;;;;;;5071553;28;20176;-52
2023/09/11 11:58:54;;;;;;;7.90;5.95;;;;;;;;;;5072232;28;20564;-54
2023/09/11 12:01:20;;;;;;;8.00;6.80;;;;;;;;;;5090750;28;20603;-54
2023/09/11 12:03:47;;;;;;;9.38;6.78;;;;;;;;;;5072947;28;20175;-51
2023/09/11 12:06:14;;;;;;;11.32;6.40;;;;;;;;;;5072480;28;20214;-52
2023/09/11 12:08:42;;;;;;;9.32;6.90;;;;;;;;;;5072714;28;20168;-52
2023/09/11 12:11:10;;;;;;;11.80;7.45;;;;;;;;;;5071144;28;20199;-53
2023/09/11 12:13:36;;;;;;;12.48;7.60;;;;;;;;;;5090295;28;20811;-53
2023/09/11 12:16:02;;;;;;;13.02;7.47;;;;;;;;;;5088668;28;20263;-51
2023/09/11 12:18:31;;;;;;;12.77;7.22;;;;;;;;;;5089012;28;20665;-55
2023/09/11 12:21:07;;;;;;;10.95;7.40;;;;;;;;;;5072150;28;20571;-56
2023/09/11 12:23:34;;;;;;;13.00;8.32;;;;;;;;;;5072616;28;20168;-52
2023/09/11 12:26:03;;;;;;;8.32;7.25;;;;;;;;;;5073492;28;20171;-50
2023/09/11 12:28:29;;;;;;;9.50;7.22;;;;;;;;;;5091346;28;20754;-55
2023/09/11 12:31:02;;;;;;;9.90;6.72;;;;;;;;;;5094635;28;20175;-52
2023/09/11 12:33:33;;;;;;;8.93;6.82;;;;;;;;;;5076757;28;20172;-52
2023/09/11 12:36:01;;;;;;;14.98;7.22;;;;;;;;;;5093985;28;20478;-52
2023/09/11 12:38:27;;;;;;;14.93;8.40;;;;;;;;;;5076670;28;20175;-55
2023/09/11 12:40:53;;;;;;;11.07;7.10;;;;;;;;;;5077149;28;20163;-56
2023/09/11 12:43:23;;;;;;;14.10;7.57;;;;;;;;;;5094152;28;20164;-56
2023/09/11 12:45:50;;;;;;;10.80;7.45;;;;;;;;;;5075259;28;20176;-54
2023/09/11 12:48:17;;;;;;;8.32;7.53;;;;;;;;;;5074851;28;20549;-55
2023/09/11 12:50:43;;;;;;;12.05;7.85;;;;;;;;;;5074416;28;20178;-51
2023/09/11 12:53:10;;;;;;;8.88;7.07;;;;;;;;;;5070521;28;20223;-56
2023/09/11 12:55:37;;;;;;;12.98;7.50;;;;;;;;;;5067981;28;20171;-54
2023/09/11 12:58:03;;;;;;;10.75;7.60;;;;;;;;;;5069355;28;20172;-52
2023/09/11 13:00:30;;;;;;;10.13;6.82;;;;;;;;;;5069597;28;20215;-52
2023/09/11 13:02:57;;;;;;;12.27;6.75;;;;;;;;;;5070234;28;20195;-54
2023/09/11 13:05:28;;;;;;;9.88;7.22;;;;;;;;;;5070313;28;20169;-54
2023/09/11 13:08:02;;;;;;;9.35;7.82;;;;;;;;;;5069997;28;20204;-54
2023/09/11 13:10:28;;;;;;;7.95;7.10;;;;;;;;;;5068418;28;20156;-54
2023/09/11 13:12:55;;;;;;;7.50;6.78;;;;;;;;;;5067335;28;20218;-54
2023/09/11 13:15:22;;;;;;;16.33;8.10;;;;;;;;;;5065610;28;20161;-54
2023/09/11 13:17:48;;;;;;;10.55;7.03;;;;;;;;;;5065366;28;20185;-52
2023/09/11 13:20:15;;;;;;;12.15;6.80;;;;;;;;;;5066037;28;20169;-55
2023/09/11 13:22:42;;;;;;;8.73;6.85;;;;;;;;;;5069308;28;20203;-53
2023/09/11 13:25:11;;;;;;;11.07;6.68;;;;;;;;;;5067684;28;20185;-54
2023/09/11 13:27:37;;;;;;;13.52;6.72;;;;;;;;;;5068456;28;20504;-56
2023/09/11 13:30:04;;;;;;;11.30;7.32;;;;;;;;;;5069033;28;20553;-55
2023/09/11 13:32:32;;;;;;;9.32;6.65;;;;;;;;;;5068681;28;20703;-52
2023/09/11 13:34:58;;;;;;;12.23;6.55;;;;;;;;;;5069573;28;20168;-50
2023/09/11 13:37:24;;;;;;;14.32;6.90;;;;;;;;;;5068393;28;20462;-53
2023/09/11 13:39:50;;;;;;;8.25;6.50;;;;;;;;;;5069055;28;20770;-53
2023/09/11 13:42:23;;;;;;;12.43;6.78;;;;;;;;;;5069283;28;20176;-56
2023/09/11 13:44:52;;;;;;;13.32;6.75;;;;;;;;;;5071918;28;20256;-54
2023/09/11 13:47:18;;;;;;;15.13;6.80;;;;;;;;;;5070602;28;20204;-52
2023/09/11 13:49:45;;;;;;;9.35;6.78;;;;;;;;;;5071315;28;20226;-53
2023/09/11 13:52:11;;;;;;;14.55;6.80;;;;;;;;;;5069449;28;20235;-54
2023/09/11 13:54:37;;;;;;;8.50;5.65;;;;;;;;;;5067978;28;20169;-53
2023/09/11 13:57:05;;;;;;;8.68;6.13;;;;;;;;;;5069115;28;20181;-57
2023/09/11 13:59:36;;;;;;;7.85;6.18;;;;;;;;;;5068620;28;20233;-52
2023/09/11 14:02:02;;;;;;;10.15;6.57;;;;;;;;;;5067833;28;20180;-57
2023/09/11 14:04:28;;;;;;;11.27;6.00;;;;;;;;;;5065455;28;20199;-53
2023/09/11 14:06:55;;;;;;;11.10;6.10;;;;;;;;;;5065217;28;20192;-56
2023/09/11 14:09:22;;;;;;;15.95;6.13;;;;;;;;;;5066525;28;20165;-51
2023/09/11 14:11:49;;;;;;;7.57;5.70;;;;;;;;;;5066991;28;20252;-51
2023/09/11 14:14:17;;;;;;;11.35;5.43;;;;;;;;;;5066407;28;20161;-54
2023/09/11 14:16:44;;;;;;;12.65;4.60;;;;;;;;;;5067122;28;20234;-56
2023/09/11 14:19:10;;;;;;;16.58;5.28;;;;;;;;;;5068348;28;20168;-56
2023/09/11 14:21:36;;;;;;;10.45;5.22;;;;;;;;;;5070053;28;20175;-54
2023/09/11 14:24:04;;;;;;;12.43;5.18;;;;;;;;;;5070453;28;20179;-55
2023/09/11 14:26:31;;;;;;;11.68;4.93;;;;;;;;;;5071332;28;20242;-54